sensor_id;sensor_type;location;lat;lon;timestamp;pressure;altitude;pressure_sealevel;temperature;humidity
32789;BME280;19141;48.980;8.410;2023-04-27T04:22:33;100387.56;;;6.69;100.00
32789;BME280;19141;48.980;8.410;2023-04-27T04:24:59;100383.78;;;6.71;100.00
32789;BME280;19141;48.980;8.410;2023-04-27T04:27:25;100378.91;;;6.76;100.00
32789;BME280;19141;48.980;8.410;2023-04-27T04:29:50;100377.81;;;6.69;100.00
32789;BME280;19141;48.980;8.410;2023-04-27T04:32:16;100379.47;;;6.70;100.00
32789;BME280;19141;48.980;8.410;2023-04-27T04:34:43;100376.72;;;6.72;100.00
32789;BME280;19141;48.980;8.410;2023-04-27T04:37:14;100383.78;;;6.71;100.00
32789;BME280;19141;48.980;8.410;2023-04-27T04:39:39;100381.69;;;6.75;100.00
32789;BME280;19141;48.980;8.410;2023-04-27T04:42:05;100387.56;;;6.78;100.00
32789;BME280;19141;48.980;8.410;2023-04-27T04:44:31;100390.19;;;6.78;100.00
32789;BME280;19141;48.980;8.410;2023-04-27T04:46:57;100384.16;;;6.86;100.00
32789;BME280;19141;48.980;8.410;2023-04-27T04:49:24;100382.59;;;6.93;100.00
32789;BME280;19141;48.980;8.410;2023-04-27T04:51:50;100388.44;;;6.97;100.00
32789;BME280;19141;48.980;8.410;2023-04-27T04:54:15;100387.84;;;7.03;100.00
32789;BME280;19141;48.980;8.410;2023-04-27T04:56:41;100389.81;;;7.01;100.00
32789;BME280;19141;48.980;8.410;2023-04-27T04:59:06;100388.00;;;7.01;100.00
32789;BME280;19141;48.980;8.410;2023-04-27T05:01:32;100390.78;;;7.00;100.00
32789;BME280;19141;48.980;8.410;2023-04-27T05:03:58;100393.03;;;7.04;100.00
32789;BME280;19141;48.980;8.410;2023-04-27T05:06:23;100394.72;;;6.96;100.00
32789;BME280;19141;48.980;8.410;2023-04-27T05:08:49;100396.94;;;7.00;100.00
32789;BME280;19141;48.980;8.410;2023-04-27T05:11:14;100400.84;;;6.96;99.69
32789;BME280;19141;48.980;8.410;2023-04-27T05:13:39;100404.72;;;7.02;100.00
32789;BME280;19141;48.980;8.410;2023-04-27T05:16:06;100404.44;;;7.05;100.00
32789;BME280;19141;48.980;8.410;2023-04-27T05:18:33;100406.38;;;7.03;99.36
32789;BME280;19141;48.980;8.410;2023-04-27T05:20:59;100411.69;;;7.03;98.08
32789;BME280;19141;48.980;8.410;2023-04-27T05:23:24;100411.94;;;7.10;98.13
32789;BME280;19141;48.980;8.410;2023-04-27T05:25:50;100406.59;;;7.19;97.20
32789;BME280;19141;48.980;8.410;2023-04-27T05:28:15;100414.41;;;7.21;96.08
32789;BME280;19141;48.980;8.410;2023-04-27T05:30:41;100414.53;;;7.19;95.74
32789;BME280;19141;48.980;8.410;2023-04-27T05:33:06;100415.63;;;7.26;96.38
32789;BME280;19141;48.980;8.410;2023-04-27T05:35:32;100423.00;;;7.23;95.44
32789;BME280;19141;48.980;8.410;2023-04-27T05:37:58;100420.78;;;7.28;94.64
32789;BME280;19141;48.980;8.410;2023-04-27T05:40:23;100427.06;;;7.27;94.09
32789;BME280;19141;48.980;8.410;2023-04-27T05:42:49;100427.22;;;7.25;94.07
32789;BME280;19141;48.980;8.410;2023-04-27T05:45:14;100427.88;;;7.27;93.83
32789;BME280;19141;48.980;8.410;2023-04-27T05:47:40;100423.81;;;7.33;94.64
32789;BME280;19141;48.980;8.410;2023-04-27T05:50:06;100435.91;;;7.35;97.45
32789;BME280;19141;48.980;8.410;2023-04-27T05:52:32;100440.19;;;7.46;95.79
32789;BME280;19141;48.980;8.410;2023-04-27T05:54:58;100437.13;;;7.51;94.92
32789;BME280;19141;48.980;8.410;2023-04-27T05:57:24;100443.31;;;7.59;93.86
32789;BME280;19141;48.980;8.410;2023-04-27T05:59:50;100442.97;;;7.72;92.79
32789;BME280;19141;48.980;8.410;2023-04-27T06:02:17;100441.09;;;7.82;92.12
32789;BME280;19141;48.980;8.410;2023-04-27T06:04:44;100450.13;;;7.89;91.81
32789;BME280;19141;48.980;8.410;2023-04-27T06:07:10;100446.53;;;7.99;93.36
32789;BME280;19141;48.980;8.410;2023-04-27T06:09:36;100460.56;;;8.09;93.61
32789;BME280;19141;48.980;8.410;2023-04-27T06:12:03;100458.66;;;8.19;93.10
32789;BME280;19141;48.980;8.410;2023-04-27T06:14:29;100457.13;;;8.34;94.14
32789;BME280;19141;48.980;8.410;2023-04-27T06:16:55;100451.38;;;8.21;92.99
32789;BME280;19141;48.980;8.410;2023-04-27T06:19:20;100462.00;;;8.39;92.85
32789;BME280;19141;48.980;8.410;2023-04-27T06:21:45;100462.69;;;8.41;92.48
32789;BME280;19141;48.980;8.410;2023-04-27T06:24:11;100462.56;;;8.42;94.11
32789;BME280;19141;48.980;8.410;2023-04-27T06:26:36;100449.66;;;8.48;92.96
32789;BME280;19141;48.980;8.410;2023-04-27T06:29:02;100467.69;;;8.62;91.35
32789;BME280;19141;48.980;8.410;2023-04-27T06:31:28;100464.75;;;8.73;90.59
32789;BME280;19141;48.980;8.410;2023-04-27T06:33:54;100463.63;;;8.76;89.85
32789;BME280;19141;48.980;8.410;2023-04-27T06:36:19;100469.09;;;8.74;89.95
32789;BME280;19141;48.980;8.410;2023-04-27T06:38:45;100478.84;;;8.74;90.48
32789;BME280;19141;48.980;8.410;2023-04-27T06:41:10;100468.97;;;8.84;89.60
32789;BME280;19141;48.980;8.410;2023-04-27T06:43:37;100454.91;;;8.91;89.79
32789;BME280;19141;48.980;8.410;2023-04-27T06:46:03;100463.28;;;9.05;89.82
32789;BME280;19141;48.980;8.410;2023-04-27T06:48:28;100470.31;;;9.14;89.50
32789;BME280;19141;48.980;8.410;2023-04-27T06:50:54;100471.34;;;9.21;86.14
32789;BME280;19141;48.980;8.410;2023-04-27T06:53:19;100472.56;;;9.35;86.29
32789;BME280;19141;48.980;8.410;2023-04-27T06:55:44;100467.47;;;9.49;86.97
32789;BME280;19141;48.980;8.410;2023-04-27T06:58:10;100465.19;;;9.63;86.01
32789;BME280;19141;48.980;8.410;2023-04-27T07:00:35;100471.22;;;9.73;84.94
32789;BME280;19141;48.980;8.410;2023-04-27T07:03:01;100474.59;;;9.91;83.08
32789;BME280;19141;48.980;8.410;2023-04-27T07:05:26;100476.72;;;9.88;81.25
32789;BME280;19141;48.980;8.410;2023-04-27T07:07:52;100483.41;;;10.00;82.19
32789;BME280;19141;48.980;8.410;2023-04-27T07:10:17;100474.59;;;10.07;84.26
32789;BME280;19141;48.980;8.410;2023-04-27T07:12:43;100470.28;;;10.15;84.70
32789;BME280;19141;48.980;8.410;2023-04-27T07:15:09;100476.59;;;10.22;83.11
32789;BME280;19141;48.980;8.410;2023-04-27T07:17:34;100478.16;;;10.41;81.96
32789;BME280;19141;48.980;8.410;2023-04-27T07:20:00;100468.16;;;10.35;79.48
32789;BME280;19141;48.980;8.410;2023-04-27T07:22:26;100477.66;;;10.45;76.18
32789;BME280;19141;48.980;8.410;2023-04-27T07:24:53;100478.50;;;10.38;78.87
32789;BME280;19141;48.980;8.410;2023-04-27T07:27:18;100477.50;;;10.63;76.45
32789;BME280;19141;48.980;8.410;2023-04-27T07:29:44;100473.78;;;10.80;78.02
32789;BME280;19141;48.980;8.410;2023-04-27T07:32:10;100470.44;;;10.86;80.41
32789;BME280;19141;48.980;8.410;2023-04-27T07:34:35;100473.16;;;10.70;73.63
32789;BME280;19141;48.980;8.410;2023-04-27T07:37:01;100468.44;;;10.97;75.39
32789;BME280;19141;48.980;8.410;2023-04-27T07:39:27;100461.28;;;10.97;78.32
32789;BME280;19141;48.980;8.410;2023-04-27T07:41:53;100460.22;;;11.06;72.89
32789;BME280;19141;48.980;8.410;2023-04-27T07:44:19;100456.38;;;11.17;76.27
32789;BME280;19141;48.980;8.410;2023-04-27T07:46:45;100453.81;;;11.32;76.05
32789;BME280;19141;48.980;8.410;2023-04-27T07:49:14;100453.63;;;11.41;73.71
32789;BME280;19141;48.980;8.410;2023-04-27T07:51:40;100447.94;;;11.45;71.38
32789;BME280;19141;48.980;8.410;2023-04-27T07:54:07;100452.19;;;11.54;71.87
32789;BME280;19141;48.980;8.410;2023-04-27T07:56:32;100442.03;;;11.57;70.74
32789;BME280;19141;48.980;8.410;2023-04-27T07:58:58;100451.94;;;11.72;72.59
32789;BME280;19141;48.980;8.410;2023-04-27T08:01:23;100448.44;;;11.71;72.82
32789;BME280;19141;48.980;8.410;2023-04-27T08:03:49;100445.28;;;11.76;69.93
32789;BME280;19141;48.980;8.410;2023-04-27T08:06:14;100437.59;;;11.81;67.09
32789;BME280;19141;48.980;8.410;2023-04-27T08:08:40;100438.56;;;11.88;68.16
32789;BME280;19141;48.980;8.410;2023-04-27T08:11:09;100448.66;;;12.01;69.60
32789;BME280;19141;48.980;8.410;2023-04-27T08:13:35;100450.25;;;12.10;72.51
32789;BME280;19141;48.980;8.410;2023-04-27T08:16:01;100440.31;;;12.18;73.71
32789;BME280;19141;48.980;8.410;2023-04-27T08:18:26;100454.19;;;12.37;71.47
32789;BME280;19141;48.980;8.410;2023-04-27T08:20:53;100448.25;;;12.49;69.18
32789;BME280;19141;48.980;8.410;2023-04-27T08:23:18;100448.09;;;12.66;71.71
32789;BME280;19141;48.980;8.410;2023-04-27T08:25:43;100448.03;;;12.74;67.37
32789;BME280;19141;48.980;8.410;2023-04-27T08:28:09;100442.03;;;12.87;64.17
32789;BME280;19141;48.980;8.410;2023-04-27T08:30:34;100441.59;;;12.98;64.68
32789;BME280;19141;48.980;8.410;2023-04-27T08:33:00;100436.69;;;13.16;62.49
32789;BME280;19141;48.980;8.410;2023-04-27T08:35:25;100435.03;;;13.30;61.09
32789;BME280;19141;48.980;8.410;2023-04-27T08:37:51;100436.81;;;13.38;59.61
32789;BME280;19141;48.980;8.410;2023-04-27T08:40:18;100428.88;;;13.44;59.45
32789;BME280;19141;48.980;8.410;2023-04-27T08:42:58;100421.06;;;13.64;56.37
32789;BME280;19141;48.980;8.410;2023-04-27T08:45:24;100428.16;;;13.72;62.16
32789;BME280;19141;48.980;8.410;2023-04-27T08:47:50;100420.44;;;13.83;57.92
32789;BME280;19141;48.980;8.410;2023-04-27T08:50:16;100435.00;;;13.96;57.51
32789;BME280;19141;48.980;8.410;2023-04-27T08:52:45;100433.13;;;14.18;55.13
32789;BME280;19141;48.980;8.410;2023-04-27T08:55:11;100435.38;;;14.35;54.83
32789;BME280;19141;48.980;8.410;2023-04-27T08:57:37;100428.34;;;14.34;53.18
32789;BME280;19141;48.980;8.410;2023-04-27T09:00:03;100434.13;;;14.59;58.43
32789;BME280;19141;48.980;8.410;2023-04-27T09:02:47;100426.84;;;14.75;56.83
32789;BME280;19141;48.980;8.410;2023-04-27T09:05:21;100431.53;;;14.73;53.93
32789;BME280;19141;48.980;8.410;2023-04-27T09:10:21;100421.47;;;15.09;54.27
32789;BME280;19141;48.980;8.410;2023-04-27T09:12:58;100420.94;;;15.27;53.15
32789;BME280;19141;48.980;8.410;2023-04-27T09:15:24;100432.00;;;15.59;53.94
32789;BME280;19141;48.980;8.410;2023-04-27T09:17:54;100428.34;;;15.66;54.47
32789;BME280;19141;48.980;8.410;2023-04-27T09:20:20;100434.16;;;15.83;51.93
32789;BME280;19141;48.980;8.410;2023-04-27T09:22:49;100434.03;;;16.24;55.27
32789;BME280;19141;48.980;8.410;2023-04-27T09:25:41;100430.72;;;16.49;51.63
32789;BME280;19141;48.980;8.410;2023-04-27T09:28:07;100420.78;;;16.43;51.44
32789;BME280;19141;48.980;8.410;2023-04-27T09:30:32;100423.69;;;16.68;48.04
32789;BME280;19141;48.980;8.410;2023-04-27T09:33:01;100422.88;;;16.47;46.94
32789;BME280;19141;48.980;8.410;2023-04-27T09:35:28;100417.69;;;16.86;47.88
32789;BME280;19141;48.980;8.410;2023-04-27T09:37:55;100418.47;;;16.99;48.06
32789;BME280;19141;48.980;8.410;2023-04-27T09:40:21;100421.31;;;17.24;47.35
32789;BME280;19141;48.980;8.410;2023-04-27T09:42:51;100411.75;;;17.35;49.77
32789;BME280;19141;48.980;8.410;2023-04-27T09:45:17;100413.72;;;17.53;45.52
32789;BME280;19141;48.980;8.410;2023-04-27T09:47:43;100413.72;;;17.53;45.79
32789;BME280;19141;48.980;8.410;2023-04-27T09:50:11;100413.53;;;17.93;44.61
32789;BME280;19141;48.980;8.410;2023-04-27T09:52:37;100419.72;;;18.00;43.10
32789;BME280;19141;48.980;8.410;2023-04-27T09:55:03;100416.25;;;17.86;42.35
32789;BME280;19141;48.980;8.410;2023-04-27T09:57:45;100409.00;;;18.43;42.40
32789;BME280;19141;48.980;8.410;2023-04-27T10:00:41;100411.66;;;18.75;40.74
32789;BME280;19141;48.980;8.410;2023-04-27T10:03:54;100404.31;;;18.82;41.94
32789;BME280;19141;48.980;8.410;2023-04-27T10:08:44;100413.28;;;19.67;40.67
32789;BME280;19141;48.980;8.410;2023-04-27T10:11:16;100402.78;;;19.77;40.43
32789;BME280;19141;48.980;8.410;2023-04-27T10:13:53;100398.84;;;20.03;40.49
32789;BME280;19141;48.980;8.410;2023-04-27T10:16:19;100397.00;;;20.16;37.61
32789;BME280;19141;48.980;8.410;2023-04-27T10:18:54;100400.84;;;20.08;36.64
32789;BME280;19141;48.980;8.410;2023-04-27T10:21:20;100396.72;;;19.45;39.14
32789;BME280;19141;48.980;8.410;2023-04-27T10:23:48;100393.09;;;20.12;37.90
32789;BME280;19141;48.980;8.410;2023-04-27T10:26:26;100396.97;;;20.04;40.37
32789;BME280;19141;48.980;8.410;2023-04-27T10:29:07;100402.81;;;20.01;40.82
32789;BME280;19141;48.980;8.410;2023-04-27T10:31:33;100398.81;;;19.92;40.16
32789;BME280;19141;48.980;8.410;2023-04-27T10:34:09;100394.63;;;20.19;39.44
32789;BME280;19141;48.980;8.410;2023-04-27T10:36:37;100398.81;;;20.57;37.03
32789;BME280;19141;48.980;8.410;2023-04-27T10:39:16;100392.91;;;21.07;37.55
32789;BME280;19141;48.980;8.410;2023-04-27T10:41:51;100397.38;;;21.01;38.39
32789;BME280;19141;48.980;8.410;2023-04-27T10:44:28;100392.47;;;21.38;35.48
32789;BME280;19141;48.980;8.410;2023-04-27T10:46:59;100388.44;;;21.53;35.91
32789;BME280;19141;48.980;8.410;2023-04-27T10:49:28;100388.88;;;21.61;33.78
32789;BME280;19141;48.980;8.410;2023-04-27T10:51:56;100386.50;;;21.65;34.18
32789;BME280;19141;48.980;8.410;2023-04-27T10:54:27;100385.13;;;22.25;35.76
32789;BME280;19141;48.980;8.410;2023-04-27T10:56:52;100387.66;;;22.48;34.08
32789;BME280;19141;48.980;8.410;2023-04-27T10:59:18;100379.28;;;22.50;35.79
32789;BME280;19141;48.980;8.410;2023-04-27T11:01:47;100371.81;;;22.95;34.33
32789;BME280;19141;48.980;8.410;2023-04-27T11:04:13;100374.34;;;22.63;33.27
32789;BME280;19141;48.980;8.410;2023-04-27T11:06:43;100375.44;;;22.84;33.69
32789;BME280;19141;48.980;8.410;2023-04-27T11:09:10;100374.72;;;23.11;31.98
32789;BME280;19141;48.980;8.410;2023-04-27T11:11:35;100371.47;;;23.14;32.91
32789;BME280;19141;48.980;8.410;2023-04-27T11:14:01;100380.59;;;22.86;32.09
32789;BME280;19141;48.980;8.410;2023-04-27T11:16:28;100374.69;;;22.50;34.02
32789;BME280;19141;48.980;8.410;2023-04-27T11:18:54;100377.66;;;22.87;32.69
32789;BME280;19141;48.980;8.410;2023-04-27T11:21:19;100375.28;;;23.13;33.93
32789;BME280;19141;48.980;8.410;2023-04-27T11:23:45;100365.38;;;23.72;32.35
32789;BME280;19141;48.980;8.410;2023-04-27T11:26:13;100364.13;;;22.54;34.11
32789;BME280;19141;48.980;8.410;2023-04-27T11:29:01;100365.41;;;23.07;35.77
32789;BME280;19141;48.980;8.410;2023-04-27T11:31:43;100359.75;;;23.57;32.22
32789;BME280;19141;48.980;8.410;2023-04-27T11:34:23;100358.81;;;23.46;31.03
32789;BME280;19141;48.980;8.410;2023-04-27T11:39:22;100346.88;;;23.47;32.28
32789;BME280;19141;48.980;8.410;2023-04-27T11:41:47;100345.84;;;23.05;31.81
32789;BME280;19141;48.980;8.410;2023-04-27T11:44:13;100348.19;;;23.18;32.82
32789;BME280;19141;48.980;8.410;2023-04-27T11:46:38;100350.00;;;23.12;31.70
32789;BME280;19141;48.980;8.410;2023-04-27T11:49:08;100341.09;;;23.66;30.53
32789;BME280;19141;48.980;8.410;2023-04-27T11:51:34;100332.84;;;23.55;31.25
32789;BME280;19141;48.980;8.410;2023-04-27T11:54:05;100331.84;;;24.31;29.84
32789;BME280;19141;48.980;8.410;2023-04-27T11:56:40;100325.53;;;24.62;28.87
32789;BME280;19141;48.980;8.410;2023-04-27T11:59:20;100319.75;;;23.79;30.23
32789;BME280;19141;48.980;8.410;2023-04-27T12:01:47;100320.72;;;23.95;29.12
32789;BME280;19141;48.980;8.410;2023-04-27T12:04:13;100323.22;;;24.02;29.86
32789;BME280;19141;48.980;8.410;2023-04-27T12:06:38;100312.31;;;23.16;31.19
32789;BME280;19141;48.980;8.410;2023-04-27T12:09:04;100322.31;;;22.16;31.48
32789;BME280;19141;48.980;8.410;2023-04-27T12:11:29;100317.44;;;22.73;32.74
32789;BME280;19141;48.980;8.410;2023-04-27T12:13:55;100318.56;;;22.56;33.76
32789;BME280;19141;48.980;8.410;2023-04-27T12:16:21;100321.16;;;23.33;31.40
32789;BME280;19141;48.980;8.410;2023-04-27T12:18:48;100320.16;;;23.61;31.16
32789;BME280;19141;48.980;8.410;2023-04-27T12:21:14;100309.69;;;23.26;30.47
32789;BME280;19141;48.980;8.410;2023-04-27T12:23:39;100312.41;;;23.26;31.83
32789;BME280;19141;48.980;8.410;2023-04-27T12:26:06;100311.03;;;23.01;31.50
32789;BME280;19141;48.980;8.410;2023-04-27T12:28:32;100305.31;;;22.59;31.74
32789;BME280;19141;48.980;8.410;2023-04-27T12:30:57;100304.84;;;23.28;31.52
32789;BME280;19141;48.980;8.410;2023-04-27T12:33:23;100297.50;;;22.63;31.95
32789;BME280;19141;48.980;8.410;2023-04-27T12:35:48;100308.72;;;22.50;32.19
32789;BME280;19141;48.980;8.410;2023-04-27T12:38:13;100305.13;;;22.66;32.79
32789;BME280;19141;48.980;8.410;2023-04-27T12:40:39;100298.03;;;21.30;33.47
32789;BME280;19141;48.980;8.410;2023-04-27T12:43:06;100299.66;;;23.05;32.62
32789;BME280;19141;48.980;8.410;2023-04-27T12:45:32;100303.41;;;23.74;30.92
32789;BME280;19141;48.980;8.410;2023-04-27T12:47:57;100300.84;;;23.63;30.80
32789;BME280;19141;48.980;8.410;2023-04-27T12:50:23;100308.06;;;24.16;30.54
32789;BME280;19141;48.980;8.410;2023-04-27T12:52:48;100300.69;;;23.79;31.14
32789;BME280;19141;48.980;8.410;2023-04-27T12:55:14;100300.69;;;24.06;31.13
32789;BME280;19141;48.980;8.410;2023-04-27T12:57:40;100297.25;;;23.89;29.87
32789;BME280;19141;48.980;8.410;2023-04-27T13:00:05;100298.28;;;24.52;29.04
32789;BME280;19141;48.980;8.410;2023-04-27T13:02:34;100298.56;;;24.19;29.89
32789;BME280;19141;48.980;8.410;2023-04-27T13:05:01;100304.44;;;23.46;30.35
32789;BME280;19141;48.980;8.410;2023-04-27T13:07:26;100284.00;;;23.12;32.39
32789;BME280;19141;48.980;8.410;2023-04-27T13:09:52;100285.81;;;23.60;34.06
32789;BME280;19141;48.980;8.410;2023-04-27T13:12:17;100283.50;;;22.93;33.45
32789;BME280;19141;48.980;8.410;2023-04-27T13:14:42;100295.63;;;23.88;31.23
32789;BME280;19141;48.980;8.410;2023-04-27T13:17:10;100283.50;;;23.69;31.75
32789;BME280;19141;48.980;8.410;2023-04-27T13:19:36;100275.38;;;24.11;29.89
32789;BME280;19141;48.980;8.410;2023-04-27T13:22:01;100275.31;;;24.01;30.91
32789;BME280;19141;48.980;8.410;2023-04-27T13:24:28;100276.28;;;24.22;29.88
32789;BME280;19141;48.980;8.410;2023-04-27T13:26:53;100278.94;;;23.47;31.23
32789;BME280;19141;48.980;8.410;2023-04-27T13:29:19;100279.06;;;22.65;32.01
32789;BME280;19141;48.980;8.410;2023-04-27T13:31:45;100280.03;;;22.97;32.34
32789;BME280;19141;48.980;8.410;2023-04-27T13:34:10;100284.38;;;22.98;32.70
32789;BME280;19141;48.980;8.410;2023-04-27T13:36:36;100278.72;;;23.27;31.42
32789;BME280;19141;48.980;8.410;2023-04-27T13:39:01;100282.22;;;23.22;31.39
32789;BME280;19141;48.980;8.410;2023-04-27T13:41:28;100277.91;;;22.61;32.70
32789;BME280;19141;48.980;8.410;2023-04-27T13:43:53;100277.19;;;21.93;34.61
32789;BME280;19141;48.980;8.410;2023-04-27T13:46:18;100265.75;;;22.25;33.06
32789;BME280;19141;48.980;8.410;2023-04-27T13:48:44;100270.44;;;21.95;33.34
32789;BME280;19141;48.980;8.410;2023-04-27T13:51:09;100268.38;;;22.03;35.11
32789;BME280;19141;48.980;8.410;2023-04-27T13:53:35;100269.59;;;21.45;33.19
32789;BME280;19141;48.980;8.410;2023-04-27T13:56:00;100275.88;;;21.05;35.00
32789;BME280;19141;48.980;8.410;2023-04-27T13:58:26;100270.56;;;21.10;35.65
32789;BME280;19141;48.980;8.410;2023-04-27T14:00:53;100267.38;;;21.13;35.99
32789;BME280;19141;48.980;8.410;2023-04-27T14:03:19;100272.78;;;21.13;35.89
32789;BME280;19141;48.980;8.410;2023-04-27T14:05:44;100265.34;;;20.80;34.81
32789;BME280;19141;48.980;8.410;2023-04-27T14:08:12;100268.31;;;20.67;35.48
32789;BME280;19141;48.980;8.410;2023-04-27T14:10:37;100264.34;;;20.98;34.54
32789;BME280;19141;48.980;8.410;2023-04-27T14:13:04;100254.66;;;20.73;34.59
32789;BME280;19141;48.980;8.410;2023-04-27T14:15:29;100256.47;;;20.32;35.08
32789;BME280;19141;48.980;8.410;2023-04-27T14:17:55;100259.41;;;20.43;35.08
32789;BME280;19141;48.980;8.410;2023-04-27T14:20:20;100261.44;;;20.24;35.68
32789;BME280;19141;48.980;8.410;2023-04-27T14:22:46;100263.19;;;20.42;38.74
32789;BME280;19141;48.980;8.410;2023-04-27T14:25:12;100261.50;;;20.41;38.22
32789;BME280;19141;48.980;8.410;2023-04-27T14:27:37;100260.72;;;20.52;36.46
32789;BME280;19141;48.980;8.410;2023-04-27T14:30:03;100256.09;;;20.64;37.38
32789;BME280;19141;48.980;8.410;2023-04-27T14:32:29;100247.78;;;20.19;36.42
32789;BME280;19141;48.980;8.410;2023-04-27T14:34:54;100243.44;;;20.29;37.07
32789;BME280;19141;48.980;8.410;2023-04-27T14:37:20;100225.59;;;20.05;36.48
32789;BME280;19141;48.980;8.410;2023-04-27T14:39:45;100244.03;;;20.08;36.80
32789;BME280;19141;48.980;8.410;2023-04-27T14:42:11;100246.03;;;20.24;36.41
32789;BME280;19141;48.980;8.410;2023-04-27T14:44:36;100246.84;;;19.78;36.30
32789;BME280;19141;48.980;8.410;2023-04-27T14:47:02;100242.50;;;20.12;36.26
32789;BME280;19141;48.980;8.410;2023-04-27T14:49:27;100245.44;;;20.11;36.00
32789;BME280;19141;48.980;8.410;2023-04-27T14:51:52;100244.50;;;20.05;35.82
32789;BME280;19141;48.980;8.410;2023-04-27T14:54:18;100247.06;;;19.88;36.40
32789;BME280;19141;48.980;8.410;2023-04-27T14:56:43;100242.13;;;20.20;36.77
32789;BME280;19141;48.980;8.410;2023-04-27T14:59:09;100247.22;;;20.28;36.10
32789;BME280;19141;48.980;8.410;2023-04-27T15:01:35;100251.91;;;20.10;36.34
32789;BME280;19141;48.980;8.410;2023-04-27T15:04:01;100251.94;;;19.44;36.51
32789;BME280;19141;48.980;8.410;2023-04-27T15:06:26;100246.50;;;19.33;37.44
32789;BME280;19141;48.980;8.410;2023-04-27T15:08:55;100254.44;;;19.28;37.70
32789;BME280;19141;48.980;8.410;2023-04-27T15:11:21;100239.53;;;18.95;38.32
32789;BME280;19141;48.980;8.410;2023-04-27T15:13:46;100240.28;;;19.02;38.00
32789;BME280;19141;48.980;8.410;2023-04-27T15:16:12;100235.28;;;18.87;38.02
32789;BME280;19141;48.980;8.410;2023-04-27T15:18:37;100240.28;;;19.02;38.70
32789;BME280;19141;48.980;8.410;2023-04-27T15:21:03;100236.03;;;19.24;39.16
32789;BME280;19141;48.980;8.410;2023-04-27T15:23:28;100232.31;;;19.49;39.58
32789;BME280;19141;48.980;8.410;2023-04-27T15:25:55;100229.16;;;19.52;38.63
32789;BME280;19141;48.980;8.410;2023-04-27T15:28:21;100221.63;;;19.54;39.91
32789;BME280;19141;48.980;8.410;2023-04-27T15:30:46;100216.34;;;19.47;39.05
32789;BME280;19141;48.980;8.410;2023-04-27T15:33:13;100223.19;;;19.62;39.16
32789;BME280;19141;48.980;8.410;2023-04-27T15:35:38;100219.41;;;19.51;38.17
32789;BME280;19141;48.980;8.410;2023-04-27T15:38:06;100214.41;;;19.66;38.42
32789;BME280;19141;48.980;8.410;2023-04-27T15:40:32;100213.88;;;19.46;38.13
32789;BME280;19141;48.980;8.410;2023-04-27T15:42:58;100207.47;;;19.59;39.70
32789;BME280;19141;48.980;8.410;2023-04-27T15:45:24;100215.34;;;19.60;38.35
32789;BME280;19141;48.980;8.410;2023-04-27T15:47:49;100209.78;;;19.55;39.75
32789;BME280;19141;48.980;8.410;2023-04-27T15:50:15;100208.47;;;19.46;39.19
32789;BME280;19141;48.980;8.410;2023-04-27T15:52:41;100202.97;;;19.52;38.42
32789;BME280;19141;48.980;8.410;2023-04-27T15:55:06;100207.53;;;19.52;38.65
32789;BME280;19141;48.980;8.410;2023-04-27T15:57:32;100197.31;;;19.54;39.39
32789;BME280;19141;48.980;8.410;2023-04-27T15:59:58;100190.03;;;19.55;39.05
32789;BME280;19141;48.980;8.410;2023-04-27T16:02:24;100196.38;;;19.48;38.95
32789;BME280;19141;48.980;8.410;2023-04-27T16:04:53;100188.50;;;19.47;38.63
32789;BME280;19141;48.980;8.410;2023-04-27T16:07:19;100181.91;;;19.43;37.96
32789;BME280;19141;48.980;8.410;2023-04-27T16:09:44;100170.88;;;19.33;39.49
32789;BME280;19141;48.980;8.410;2023-04-27T16:12:09;100167.44;;;19.14;39.34
32789;BME280;19141;48.980;8.410;2023-04-27T16:14:35;100176.94;;;19.16;39.54
32789;BME280;19141;48.980;8.410;2023-04-27T16:17:00;100178.59;;;19.17;38.99
32789;BME280;19141;48.980;8.410;2023-04-27T16:19:26;100164.44;;;19.04;37.97
32789;BME280;19141;48.980;8.410;2023-04-27T16:21:51;100178.19;;;19.02;38.28
32789;BME280;19141;48.980;8.410;2023-04-27T16:24:17;100169.56;;;18.63;38.52
32789;BME280;19141;48.980;8.410;2023-04-27T16:26:44;100172.72;;;18.79;38.84
32789;BME280;19141;48.980;8.410;2023-04-27T16:29:10;100169.66;;;18.75;38.76
32789;BME280;19141;48.980;8.410;2023-04-27T16:31:36;100179.28;;;18.64;38.94
32789;BME280;19141;48.980;8.410;2023-04-27T16:34:01;100160.59;;;18.51;39.05
32789;BME280;19141;48.980;8.410;2023-04-27T16:36:28;100160.47;;;18.46;39.03
32789;BME280;19141;48.980;8.410;2023-04-27T16:38:53;100164.97;;;18.52;39.63
32789;BME280;19141;48.980;8.410;2023-04-27T16:41:19;100158.94;;;18.50;40.27
32789;BME280;19141;48.980;8.410;2023-04-27T16:43:46;100154.25;;;18.46;39.72
32789;BME280;19141;48.980;8.410;2023-04-27T16:46:11;100149.75;;;18.39;39.47
32789;BME280;19141;48.980;8.410;2023-04-27T16:48:39;100149.53;;;18.41;40.80
32789;BME280;19141;48.980;8.410;2023-04-27T16:51:04;100155.06;;;18.46;41.33
32789;BME280;19141;48.980;8.410;2023-04-27T16:53:30;100159.13;;;18.37;40.24
32789;BME280;19141;48.980;8.410;2023-04-27T16:55:58;100165.06;;;18.27;39.93
32789;BME280;19141;48.980;8.410;2023-04-27T16:58:24;100168.56;;;18.28;40.74
32789;BME280;19141;48.980;8.410;2023-04-27T17:00:49;100167.91;;;18.14;40.94
32789;BME280;19141;48.980;8.410;2023-04-27T17:03:15;100167.19;;;18.18;41.10
32789;BME280;19141;48.980;8.410;2023-04-27T17:05:41;100165.19;;;18.14;41.21
32789;BME280;19141;48.980;8.410;2023-04-27T17:08:06;100165.47;;;18.06;41.26
32789;BME280;19141;48.980;8.410;2023-04-27T17:10:32;100160.56;;;18.03;41.59
32789;BME280;19141;48.980;8.410;2023-04-27T17:13:02;100161.38;;;18.03;42.32
32789;BME280;19141;48.980;8.410;2023-04-27T17:15:27;100152.84;;;18.06;42.43
32789;BME280;19141;48.980;8.410;2023-04-27T17:17:53;100153.69;;;18.07;42.32
32789;BME280;19141;48.980;8.410;2023-04-27T17:20:18;100147.22;;;17.89;41.51